• Join FlightAware (Why Join?)
  • Login
  • US Flag 
01:08AM EDT


 

Airport Tracker/Info


-or-


 

Live Flight TrackerFlight Track Log ✈ TRS398 ✈ 14-May-2013 ✈ KMCO - KMKE

Flight Track Log - Related Links

Times and Time Zones

All times are in EDT time to prevent confusion due to time zone crossing. See the TRS398 flight status page for this flight to view local times or setup timezone preferences in your user account.

Time Position Orientation Groundspeed Altitude Reporting Facility
EDT Latitude Longitude Course Direction KTS MPH feet Rate Location/Type
02:40PM 28.4500 -81.3000 16° North 187 215 800  Level Orlando TRACON
02:41PM 28.5000 -81.2833 16° North 233 268 2,500 1,680 Climbing Orlando TRACON
02:42PM 28.5667 -81.2667 12° North 265 305 4,300 2,040 Climbing Orlando TRACON
02:43PM 28.6333 -81.2833 348° North 276 318 6,600 1,920 Climbing Orlando TRACON
02:46PM 28.7694 -81.4075 321° Northwest 292 336 10,800 1,560 Climbing Jacksonville Center
02:47PM 28.8475 -81.4681 326° Northwest 306 352 11,800 1,320 Climbing Jacksonville Center
02:48PM 28.9294 -81.5308 326° Northwest 331 381 13,500 1,680 Climbing Jacksonville Center
02:49PM 29.0239 -81.5722 339° North 346 398 15,200 1,740 Climbing Jacksonville Center
02:50PM 29.1244 -81.5994 347° North 362 417 17,000 1,500 Climbing Jacksonville Center
02:51PM 29.2372 -81.6336 345° North 368 423 18,300 1,500 Climbing Jacksonville Center
02:52PM 29.3442 -81.6586 348° North 379 436 20,000 1,500 Climbing Jacksonville Center
02:53PM 29.4550 -81.6881 347° North 391 450 21,400 1,440 Climbing Jacksonville Center
02:54PM 29.5700 -81.7178 347° North 405 466 22,900 1,500 Climbing Jacksonville Center
02:55PM 29.6831 -81.7500 346° North 415 478 24,400 1,440 Climbing Jacksonville Center
02:56PM 29.8003 -81.7819 347° North 415 478 25,800 1,260 Climbing Jacksonville Center
02:57PM 29.9175 -81.8142 347° North 420 483 27,000 1,080 Climbing Jacksonville Center
02:58PM 30.0367 -81.8417 349° North 426 490 28,000 1,020 Climbing Jacksonville Center
02:59PM 30.1581 -81.8739 347° North 431 496 29,100 1,260 Climbing Jacksonville Center
03:00PM 30.2731 -81.9136 343° North 436 502 30,600 900 Climbing Jacksonville Center
03:01PM 30.3883 -81.9583 341° North 431 496 31,000 180 Climbing Jacksonville Center
03:02PM 30.5094 -81.9642 358° North 444 511 31,000  Level Jacksonville Center
03:03PM 30.6181 -81.9633 360° North 438 504 31,000  Level Jacksonville Center
03:04PM 30.7411 -81.9428 North 438 504 31,000 -60 Level Jacksonville Center
03:05PM 30.8600 -81.9244 North 438 504 30,900  Descending Jacksonville Center
03:06PM 30.9811 -81.9331 357° North 438 504 31,000  Climbing Jacksonville Center
03:07PM 31.0922 -81.9853 338° Northwest 428 493 31,000  Level Jacksonville Center
03:08PM 31.2033 -82.0375 338° Northwest 428 493 31,000  Level Jacksonville Center
03:09PM 31.3122 -82.0900 338° Northwest 428 493 31,000 -60 Level Jacksonville Center
03:10PM 31.4231 -82.1428 338° Northwest 428 493 30,900  Descending Jacksonville Center
03:11PM 31.5319 -82.1931 339° North 423 487 31,000  Climbing Jacksonville Center
03:12PM 31.6428 -82.2433 339° North 418 481 31,000 420 Level Jacksonville Center
03:13PM 31.7497 -82.2939 338° Northwest 417 480 31,900 600 Climbing Jacksonville Center
03:15PM 32.0136 -82.4172 338° Northwest 420 483 33,000 300 Climbing Atlanta Center
03:16PM 32.1269 -82.4717 338° Northwest 426 490 33,000  Level Atlanta Center
03:17PM 32.2403 -82.5261 338° Northwest 426 490 33,100 480 Climbing Atlanta Center
03:18PM 32.3350 -82.5786 335° Northwest 426 490 34,000 420 Climbing Atlanta Center
03:19PM 32.4586 -82.6333 340° North 421 484 34,000  Level Atlanta Center
03:20PM 32.5531 -82.6761 339° North 421 484 34,000  Level Atlanta Center
03:21PM 32.6622 -82.7311 337° Northwest 421 484 34,000  Level Atlanta Center
03:22PM 32.7714 -82.7864 337° Northwest 421 484 34,000  Level Atlanta Center
03:23PM 32.8847 -82.8417 338° Northwest 421 484 34,000  Level Atlanta Center
03:24PM 32.9936 -82.8947 338° Northwest 421 484 34,000  Level Atlanta Center
03:25PM 33.1153 -82.9550 337° Northwest 421 484 34,000  Level Atlanta Center
03:26PM 33.2139 -83.0033 338° Northwest 427 491 34,000  Level Atlanta Center
03:27PM 33.3228 -83.0544 339° North 422 486 34,000  Level Atlanta Center
03:28PM 33.4317 -83.1103 337° Northwest 417 480 34,000  Level Atlanta Center
03:29PM 33.5428 -83.1614 339° North 424 488 34,000  Level Atlanta Center
03:30PM 33.6494 -83.2178 336° Northwest 419 482 34,000  Level Atlanta Center
03:31PM 33.7583 -83.2717 338° Northwest 419 482 34,000  Level Atlanta Center
03:32PM 33.8653 -83.3233 338° Northwest 414 476 34,000  Level Atlanta Center
03:33PM 33.9742 -83.3800 337° Northwest 422 486 34,000  Level Atlanta Center
03:34PM 34.0933 -83.4417 337° Northwest 416 479 34,000  Level Atlanta Center
03:35PM 34.2000 -83.4939 338° Northwest 421 484 34,000  Level Atlanta Center
03:36PM 34.3067 -83.5483 337° Northwest 416 479 34,000  Level Atlanta Center
03:37PM 34.4133 -83.6031 337° Northwest 416 479 34,000  Level Atlanta Center
03:38PM 34.5219 -83.6581 337° Northwest 416 479 34,000  Level Atlanta Center
03:39PM 34.6286 -83.7106 338° Northwest 416 479 34,000  Level Atlanta Center
03:40PM 34.7353 -83.7633 338° Northwest 416 479 34,000  Level Atlanta Center
03:41PM 34.8417 -83.8211 336° Northwest 416 479 34,000  Level Atlanta Center
03:42PM 34.9461 -83.8792 336° Northwest 411 473 34,000  Level Atlanta Center
03:43PM 35.0528 -83.9322 338° Northwest 411 473 34,000  Level Atlanta Center
03:44PM 35.1592 -83.9906 336° Northwest 417 480 34,000  Level Atlanta Center
03:45PM 35.2508 -84.0769 322° Northwest 412 474 34,000  Level Atlanta Center
03:46PM 35.3428 -84.1661 322° Northwest 417 480 34,000  Level Atlanta Center
03:47PM 35.4344 -84.2553 322° Northwest 417 480 34,000  Level Atlanta Center
03:48PM 35.5261 -84.3397 323° Northwest 417 480 34,000  Level Atlanta Center
03:49PM 35.6175 -84.4297 321° Northwest 417 480 34,000  Level Atlanta Center
03:50PM 35.7069 -84.5169 322° Northwest 417 480 34,000  Level Atlanta Center
03:51PM 35.7961 -84.6044 321° Northwest 417 480 34,000  Level Atlanta Center
03:53PM 36.0311 -84.7697 330° Northwest 416 479 34,000  Level Indianapolis Center
03:54PM 36.1375 -84.8211 339° North 413 475 34,000  Level Indianapolis Center
03:55PM 36.2453 -84.8725 339° North 417 480 34,000  Level Indianapolis Center
03:56PM 36.3544 -84.9244 339° North 421 484 34,000  Level Indianapolis Center
03:57PM 36.4622 -84.9761 339° North 416 479 34,000  Level Indianapolis Center
03:58PM 36.5919 -85.0381 339° North 417 480 34,000  Level Indianapolis Center
03:59PM 36.6986 -85.0906 338° Northwest 412 474 34,000  Level Indianapolis Center
04:00PM 36.8058 -85.1425 339° North 413 475 34,000  Level Indianapolis Center
04:01PM 36.9119 -85.1942 339° North 407 468 34,000  Level Indianapolis Center
04:02PM 37.0206 -85.2461 339° North 416 479 34,000  Level Indianapolis Center
04:04PM 37.1433 -85.3075 338° Northwest 413 475 34,000  Level Indianapolis Center
04:05PM 37.2525 -85.3600 339° North 417 480 34,000  Level Indianapolis Center
04:06PM 37.3597 -85.4133 338° Northwest 416 479 34,000  Level Indianapolis Center
04:07PM 37.4656 -85.4650 339° North 409 471 34,000  Level Indianapolis Center
04:08PM 37.5719 -85.5197 338° Northwest 412 474 34,000  Level Indianapolis Center
04:09PM 37.6964 -85.5789 339° North 419 482 34,000  Level Indianapolis Center
04:10PM 37.8022 -85.6319 338° Northwest 413 475 34,000  Level Indianapolis Center
04:11PM 37.9086 -85.6856 338° Northwest 410 472 34,000  Level Indianapolis Center
04:12PM 38.0153 -85.7397 338° Northwest 412 474 34,000  Level Indianapolis Center
04:13PM 38.1222 -85.7933 338° Northwest 413 475 34,000  Level Indianapolis Center
04:14PM 38.2281 -85.8450 339° North 409 471 34,000  Level Indianapolis Center
04:15PM 38.3650 -85.8733 351° North 415 478 34,000  Level Indianapolis Center
04:16PM 38.4803 -85.8989 350° North 418 481 34,000  Level Indianapolis Center
04:17PM 38.5933 -85.9219 351° North 414 476 34,000  Level Indianapolis Center
04:18PM 38.7069 -85.9450 351° North 414 476 34,000  Level Indianapolis Center
04:19PM 38.8219 -85.9686 351° North 417 480 34,000  Level Indianapolis Center
04:20PM 38.9331 -86.0064 345° North 413 475 34,000  Level Indianapolis Center
04:21PM 39.0669 -86.0506 346° North 414 476 34,000  Level Indianapolis Center
04:22PM 39.1775 -86.0881 345° North 412 474 34,000  Level Indianapolis Center
04:23PM 39.2881 -86.1250 345° North 410 472 34,000  Level Indianapolis Center
04:24PM 39.3992 -86.1631 345° North 412 474 34,000  Level Indianapolis Center
04:25PM 39.5094 -86.2003 345° North 410 472 34,000  Level Indianapolis Center
04:26PM 39.6211 -86.2389 345° North 412 474 34,000  Level Indianapolis Center
04:27PM 39.7308 -86.2764 345° North 408 470 34,000  Level Indianapolis Center
04:28PM 39.8631 -86.3225 345° North 409 471 34,000  Level Indianapolis Center
04:29PM 39.9436 -86.3511 345° North 411 473 34,000 -180 Level Chicago Center
04:30PM 40.0542 -86.3883 346° North 411 473 33,700 -780 Descending Chicago Center
04:31PM 40.1881 -86.4344 345° North 415 478 32,500 -840 Descending Chicago Center
04:32PM 40.2983 -86.4744 345° North 412 474 32,000 -300 Descending Chicago Center
04:33PM 40.4100 -86.5117 346° North 411 473 32,000  Level Chicago Center
04:34PM 40.5208 -86.5514 345° North 411 473 32,000  Level Chicago Center
04:35PM 40.6300 -86.5900 345° North 406 467 32,000  Level Chicago Center
04:36PM 40.7414 -86.6300 345° North 413 475 32,000  Level Chicago Center
04:37PM 40.8514 -86.6703 345° North 411 473 32,000  Level Chicago Center
04:39PM 40.9839 -86.7169 345° North 410 472 32,000  Level Chicago Center
04:40PM 41.1008 -86.7603 344° North 409 471 32,000  Level Chicago Center
04:41PM 41.2086 -86.7986 345° North 405 466 32,000 -120 Level Chicago Center
04:42PM 41.3164 -86.8367 345° North 404 465 31,800 -600 Descending Chicago Center
04:43PM 41.4244 -86.8767 344° North 406 467 30,800 -2,160 Descending Chicago Center
04:44PM 41.5331 -86.9167 345° North 408 470 27,300 -2,460 Descending Chicago Center
04:45PM 41.6628 -86.9622 345° North 406 467 25,800 -1,620 Descending Chicago Center
04:46PM 41.7650 -87.0011 344° North 393 452 24,000 -900 Descending Chicago Center
04:47PM 41.8636 -87.0381 344° North 378 435 24,000 -540 Level Chicago Center
04:48PM 41.9647 -87.0753 345° North 378 435 22,900 -1,020 Descending Chicago Center
04:49PM 42.0619 -87.1117 344° North 371 427 21,900 -1,440 Descending Chicago Center
04:50PM 42.1789 -87.1528 345° North 366 421 20,000 -1,140 Descending Chicago Center
04:51PM 42.2756 -87.1897 344° North 364 419 19,600 -1,380 Descending Chicago Center
04:52PM 42.3664 -87.2236 345° North 347 399 17,200 -2,280 Descending Chicago Center
04:53PM 42.4572 -87.2581 344° North 334 384 14,900 -2,280 Descending Chicago Center
04:54PM 42.5436 -87.2625 358° North 314 361 12,600 -1,440 Descending Chicago Center
04:55PM 42.6222 -87.2864 347° North 309 356 12,000 -480 Descending Chicago Center
04:56PM 42.6750 -87.3875 305° West 300 345 11,600 -960 Descending Chicago Center
04:57PM 42.7228 -87.4811 305° West 298 343 10,000 -1,500 Descending Chicago Center
04:58PM 42.7717 -87.5794 304° West 267 307 8,500 -1,500 Descending Chicago Center
04:59PM 42.8136 -87.6608 305° West 261 300 7,000 -780 Descending Chicago Center
05:00PM 42.8531 -87.7439 303° West 261 300 7,000  Level Chicago Center
05:01PM 42.8872 -87.8150 303° West 229 264 7,000 -60 Level Chicago Center
05:02PM 42.8889 -87.8950 272° West 232 267 6,900 -1,020 Descending Chicago Center
05:03PM 42.8550 -87.9869 243° Southwest 231 266 4,900 -1,980 Descending Chicago Center
05:04PM 42.8431 -88.0594 257° West 222 255 2,900 -1,080 Descending Chicago Center
05:05PM 42.8919 -88.0558 North 208 239 2,700 -480 Descending Chicago Center
05:06PM 42.9167 -88.0000 59° Northeast 164 189 2,000 -720 Descending KMKE
05:07PM 42.9333 -87.9500 66° East 128 147 1,300 -720 Descending KMKE
05:09PM 42.9469 -87.8971 41° Northeast  Level Estimated
05:16PM 42.9469 -87.8971 41° Northeast  Level Estimated